Time;durP1;ratioP1;P1;durP2;ratioP2;P2;SDS_P1;SDS_P2;PMS_P1;PMS_P2;Temp;Humidity;BMP_temperature;BMP_pressure;BME280_temperature;BME280_humidity;BME280_pressure;Samples;Min_cycle;Max_cycle;Signal;HPM_P1;HPM_P2
2021/08/01 00:01:27;;;;;;;16.15;14.63;;;;;;;30.27;53.74;101061.95;1759478;80;21090;-49
2021/08/01 00:03:54;;;;;;;16.80;14.23;;;;;;;30.26;53.76;101058.41;1755475;80;21476;-50
2021/08/01 00:06:21;;;;;;;10.15;9.25;;;;;;;30.24;53.80;101059.55;1759378;80;21534;-49
2021/08/01 00:08:49;;;;;;;11.55;10.45;;;;;;;30.22;53.78;101058.38;1767544;80;21082;-49
2021/08/01 00:11:15;;;;;;;14.50;12.88;;;;;;;30.20;53.75;101058.17;1755894;80;21003;-49
2021/08/01 00:13:43;;;;;;;9.48;7.90;;;;;;;30.18;53.71;101063.70;1763756;80;21066;-49
2021/08/01 00:16:10;;;;;;;8.83;7.87;;;;;;;30.16;53.66;101067.03;1757372;80;21038;-49
2021/08/01 00:18:38;;;;;;;6.97;6.22;;;;;;;30.14;53.60;101063.66;1760269;80;21023;-48
2021/08/01 00:21:06;;;;;;;6.65;5.90;;;;;;;30.13;53.65;101066.50;1755208;80;21014;-49
2021/08/01 00:23:33;;;;;;;7.92;5.97;;;;;;;30.11;53.61;101066.63;1750433;80;21027;-49
2021/08/01 00:26:00;;;;;;;7.45;6.05;;;;;;;30.09;53.57;101058.41;1766351;80;21057;-49
2021/08/01 00:28:27;;;;;;;7.83;5.80;;;;;;;30.07;53.54;101059.88;1753498;80;21462;-48
2021/08/01 00:30:53;;;;;;;14.55;6.65;;;;;;;30.05;53.56;101050.27;1761630;80;20980;-49
2021/08/01 00:33:20;;;;;;;8.45;6.25;;;;;;;30.01;53.60;101043.03;1753245;81;21014;-49
2021/08/01 00:35:47;;;;;;;7.33;5.90;;;;;;;29.98;53.66;101039.81;1748525;80;21015;-49
2021/08/01 00:38:13;;;;;;;6.37;5.85;;;;;;;29.95;53.78;101036.93;1753987;81;21037;-49
2021/08/01 00:40:40;;;;;;;7.10;6.00;;;;;;;29.93;53.98;101041.61;1757945;80;21507;-50
2021/08/01 00:43:07;;;;;;;7.00;5.70;;;;;;;29.93;54.14;101038.92;1767693;80;21030;-49
2021/08/01 00:45:35;;;;;;;7.60;6.10;;;;;;;29.91;54.32;101042.25;1759143;80;21015;-49
2021/08/01 00:48:02;;;;;;;9.55;6.08;;;;;;;29.90;54.37;101039.24;1746494;81;20996;-49
2021/08/01 00:50:30;;;;;;;9.45;6.00;;;;;;;29.87;54.34;101043.55;1758606;80;21057;-48
2021/08/01 00:52:57;;;;;;;6.60;6.00;;;;;;;29.87;54.40;101044.04;1758664;81;21081;-49
2021/08/01 00:55:24;;;;;;;12.98;6.30;;;;;;;29.84;54.56;101042.53;1751902;80;21013;-49
2021/08/01 00:57:51;;;;;;;10.98;6.15;;;;;;;29.82;54.70;101055.22;1747797;81;21018;-49
2021/08/01 01:00:41;;;;;;;9.90;6.85;;;;;;;29.81;54.93;101057.56;1760021;80;20999;-49
2021/08/01 01:02:56;;;;;;;8.28;5.97;;;;;;;29.80;55.28;101058.55;1768326;80;21482;-49
2021/08/01 01:05:31;;;;;;;8.25;5.92;;;;;;;29.80;55.63;101061.75;1739780;80;21148;-49
2021/08/01 01:08:18;;;;;;;6.65;5.92;;;;;;;29.78;55.96;101057.84;1667625;84;21077;-49
2021/08/01 01:10:47;;;;;;;6.90;6.15;;;;;;;29.78;56.21;101059.19;1673821;85;21125;-49
2021/08/01 01:13:35;;;;;;;6.35;5.75;;;;;;;29.77;56.61;101058.00;1667029;84;22360;-49
2021/08/01 01:16:05;;;;;;;7.78;6.22;;;;;;;29.76;56.90;101060.36;1685681;84;21065;-49
2021/08/01 01:18:48;;;;;;;8.80;6.40;;;;;;;29.74;56.99;101061.82;1678194;84;21136;-50
2021/08/01 01:21:52;;;;;;;9.08;6.72;;;;;;;29.73;57.05;101058.81;1672867;84;21084;-49
2021/08/01 01:24:26;;;;;;;9.43;5.90;;;;;;;29.71;57.07;101063.45;1662622;85;21071;-49
2021/08/01 01:27:17;;;;;;;6.92;6.33;;;;;;;29.69;57.12;101074.82;1674545;84;21040;-49
2021/08/01 01:30:00;;;;;;;8.68;6.15;;;;;;;29.68;57.34;101075.80;1647341;86;21091;-49
2021/08/01 01:32:37;;;;;;;6.75;6.05;;;;;;;29.67;57.33;101078.14;1630238;86;21721;-49
2021/08/01 01:37:49;;;;;;;7.55;6.85;;;;;;;29.67;56.83;101076.31;1547267;91;21070;-49
2021/08/01 01:40:20;;;;;;;7.93;6.50;;;;;;;29.68;56.93;101075.30;1542303;91;21099;-49
2021/08/01 01:42:51;;;;;;;7.20;6.47;;;;;;;29.70;57.10;101072.47;1504120;94;21082;-49
2021/08/01 01:45:20;;;;;;;7.50;6.78;;;;;;;29.71;57.18;101082.22;1477351;96;21582;-49
2021/08/01 01:47:50;;;;;;;6.80;6.20;;;;;;;29.73;57.16;101088.31;1478146;96;21140;-49
2021/08/01 01:50:18;;;;;;;8.03;7.30;;;;;;;29.74;57.17;101084.63;1479798;96;21125;-50
2021/08/01 01:52:48;;;;;;;7.50;6.80;;;;;;;29.77;57.16;101087.02;1480439;96;21140;-49
2021/08/01 01:55:17;;;;;;;10.18;8.43;;;;;;;29.80;57.18;101089.39;1481362;96;21622;-49
2021/08/01 01:57:46;;;;;;;8.80;7.40;;;;;;;29.82;57.24;101089.27;1499372;95;21092;-49
2021/08/01 02:00:15;;;;;;;8.78;7.65;;;;;;;29.84;57.23;101090.81;1493711;95;21191;-50
2021/08/01 02:02:44;;;;;;;8.50;7.67;;;;;;;29.85;57.38;101089.80;1492561;95;21064;-49
2021/08/01 02:05:12;;;;;;;8.48;7.62;;;;;;;29.87;57.55;101090.50;1497752;95;21306;-49
2021/08/01 02:07:59;;;;;;;8.35;7.40;;;;;;;29.88;57.75;101088.19;1492243;95;21128;-49
2021/08/01 02:10:58;;;;;;;8.40;7.30;;;;;;;29.87;57.84;101089.16;1435980;98;21098;-50
2021/08/01 02:13:31;;;;;;;9.83;6.35;;;;;;;29.87;57.91;101089.16;1533447;93;21094;-49
2021/08/01 02:15:59;;;;;;;10.48;6.95;;;;;;;29.87;57.93;101094.52;1526827;93;21123;-49
2021/08/01 02:18:34;;;;;;;8.15;6.72;;;;;;;29.88;58.08;101094.89;1529479;93;21634;-49
2021/08/01 02:21:02;;;;;;;11.35;6.80;;;;;;;29.88;58.28;101097.58;1538493;90;21076;-49
2021/08/01 02:23:36;;;;;;;11.00;6.97;;;;;;;29.88;58.38;101096.72;1588453;90;21092;-51
2021/08/01 02:26:03;;;;;;;7.28;6.15;;;;;;;29.89;58.42;101095.22;1588161;90;21108;-49
2021/08/01 02:28:30;;;;;;;7.72;6.95;;;;;;;29.90;58.49;101095.59;1589020;90;21088;-49
2021/08/01 02:30:58;;;;;;;7.72;6.45;;;;;;;29.90;58.60;101100.95;1588680;90;21096;-50
2021/08/01 02:33:29;;;;;;;7.20;6.28;;;;;;;29.91;58.78;101099.94;1568081;90;21085;-49
2021/08/01 02:36:01;;;;;;;8.48;6.85;;;;;;;29.93;58.99;101100.64;1588306;90;21506;-49
2021/08/01 02:38:30;;;;;;;10.40;7.60;;;;;;;29.93;59.21;101095.76;1586212;89;21140;-49
2021/08/01 02:40:58;;;;;;;8.20;7.17;;;;;;;29.92;59.39;101090.91;1607293;86;21173;-50
2021/08/01 02:43:27;;;;;;;7.47;6.47;;;;;;;29.94;59.57;101091.61;1634245;86;21510;-49
2021/08/01 02:45:54;;;;;;;6.67;6.10;;;;;;;29.94;59.72;101094.29;1628148;86;21502;-50
2021/08/01 02:48:24;;;;;;;7.03;6.42;;;;;;;29.95;59.87;101097.80;1616421;86;20999;-50
2021/08/01 02:50:55;;;;;;;7.60;5.53;;;;;;;29.95;60.18;101098.64;1628227;86;21592;-50
2021/08/01 02:53:22;;;;;;;9.20;6.85;;;;;;;29.97;60.41;101102.52;1624541;86;21105;-50
2021/08/01 02:55:49;;;;;;;6.97;6.28;;;;;;;29.97;60.54;101095.31;1626626;87;21046;-50
2021/08/01 02:58:17;;;;;;;7.40;6.67;;;;;;;29.98;60.65;101098.36;1641287;83;21084;-50
2021/08/01 03:00:47;;;;;;;7.35;6.65;;;;;;;30.00;60.67;101092.34;1706791;83;21029;-50
2021/08/01 03:03:15;;;;;;;6.55;5.95;;;;;;;30.01;60.91;101090.00;1677769;83;21013;-50
2021/08/01 03:05:43;;;;;;;7.22;6.42;;;;;;;30.02;61.12;101091.70;1701344;83;21013;-50
2021/08/01 03:08:14;;;;;;;7.80;6.45;;;;;;;30.04;61.21;101095.08;1702843;83;21005;-50
2021/08/01 03:10:46;;;;;;;8.18;7.37;;;;;;;30.06;61.22;101093.09;1704399;83;21057;-51
2021/08/01 03:13:14;;;;;;;7.20;6.60;;;;;;;30.08;61.34;101092.93;1677411;85;21011;-50
2021/08/01 03:15:43;;;;;;;8.28;7.47;;;;;;;30.09;61.37;101092.77;1671889;85;21058;-50
2021/08/01 03:18:11;;;;;;;8.05;7.05;;;;;;;30.11;61.32;101089.44;1665893;85;21680;-50
2021/08/01 03:20:39;;;;;;;7.25;6.62;;;;;;;30.12;61.28;101084.44;1660117;85;21016;-51
2021/08/01 03:23:24;;;;;;;6.87;6.17;;;;;;;30.14;61.29;101082.44;1668848;85;21123;-50
2021/08/01 03:26:07;;;;;;;6.67;5.90;;;;;;;30.16;61.29;101091.19;1588215;89;21103;-50
2021/08/01 03:28:36;;;;;;;7.30;6.55;;;;;;;30.18;61.35;101085.66;1582395;89;21102;-50
2021/08/01 03:31:03;;;;;;;9.80;8.90;;;;;;;30.19;61.49;101088.19;1581493;89;21172;-50
2021/08/01 03:33:31;;;;;;;9.78;8.63;;;;;;;30.22;61.71;101091.92;1572965;89;21057;-50
2021/08/01 03:35:58;;;;;;;16.97;15.32;;;;;;;30.26;61.76;101097.34;1575349;89;21083;-50
2021/08/01 03:38:26;;;;;;;12.25;11.25;;;;;;;30.33;61.77;101089.06;1574087;89;21595;-50
2021/08/01 03:40:58;;;;;;;12.28;11.28;;;;;;;30.42;61.80;101089.48;1542103;92;21037;-50
2021/08/01 03:43:25;;;;;;;9.00;8.05;;;;;;;30.59;61.56;101089.62;1545631;92;21081;-49
2021/08/01 03:45:54;;;;;;;10.90;9.95;;;;;;;30.82;61.03;101082.79;1541927;92;21117;-51
2021/08/01 03:48:20;;;;;;;7.70;7.05;;;;;;;31.08;60.08;101080.52;1533690;92;21139;-51
2021/08/01 03:50:47;;;;;;;19.32;7.58;;;;;;;31.30;58.99;101091.26;1529465;92;21532;-48
2021/08/01 03:53:14;;;;;;;10.55;6.53;;;;;;;31.48;58.67;101093.91;1530291;91;21612;-48
2021/08/01 03:55:41;;;;;;;10.15;6.95;;;;;;;31.61;58.43;101089.80;1529827;92;21072;-49
2021/08/01 03:58:08;;;;;;;9.73;5.97;;;;;;;31.74;58.14;101086.14;1528193;92;21235;-49
2021/08/01 04:00:34;;;;;;;8.70;6.72;;;;;;;31.82;57.87;101088.05;1550877;91;21056;-49
2021/08/01 04:03:01;;;;;;;7.55;6.50;;;;;;;31.85;57.78;101091.25;1555970;90;21102;-50
2021/08/01 04:05:28;;;;;;;24.00;7.03;;;;;;;31.84;57.88;101089.55;1556235;91;21075;-50
2021/08/01 04:07:57;;;;;;;27.30;7.00;;;;;;;31.89;57.73;101092.61;1552978;91;21590;-50
2021/08/01 04:10:25;;;;;;;8.60;5.60;;;;;;;31.94;57.60;101094.33;1578786;89;21099;-50
2021/08/01 04:12:52;;;;;;;7.80;5.70;;;;;;;31.89;57.63;101103.38;1660257;85;21089;-52
2021/08/01 04:15:20;;;;;;;7.30;6.50;;;;;;;31.85;57.65;101103.36;1647820;86;21538;-50
2021/08/01 04:17:46;;;;;;;6.67;6.00;;;;;;;31.80;57.68;101113.75;1670237;80;21148;-50
2021/08/01 04:20:15;;;;;;;6.97;5.75;;;;;;;31.76;57.75;101115.08;1746650;81;21061;-50
2021/08/01 04:22:43;;;;;;;11.55;6.10;;;;;;;31.70;57.89;101106.30;1768450;80;21058;-50
2021/08/01 04:25:10;;;;;;;26.00;6.87;;;;;;;31.67;58.01;101108.48;1747252;80;21573;-50
2021/08/01 04:27:37;;;;;;;6.92;6.22;;;;;;;31.62;58.23;101107.61;1770624;80;20971;-49
2021/08/01 04:30:08;;;;;;;8.40;5.97;;;;;;;31.58;58.45;101111.63;1755135;80;20998;-52
2021/08/01 04:32:34;;;;;;;10.10;6.45;;;;;;;31.41;59.08;101109.83;1764825;80;21549;-50
2021/08/01 04:35:01;;;;;;;8.83;6.15;;;;;;;31.30;59.28;101113.59;1755644;80;20995;-50
2021/08/01 04:37:29;;;;;;;6.75;6.15;;;;;;;31.26;59.37;101108.71;1757345;80;21054;-50
2021/08/01 04:39:56;;;;;;;7.72;6.17;;;;;;;31.23;59.46;101119.27;1761793;80;21039;-50
2021/08/01 04:42:23;;;;;;;6.80;6.15;;;;;;;31.20;59.52;101118.75;1751258;80;21017;-49
2021/08/01 04:44:50;;;;;;;6.58;5.70;;;;;;;31.19;59.64;101116.56;1760450;80;21066;-49
2021/08/01 04:47:16;;;;;;;6.67;6.08;;;;;;;31.17;59.74;101112.33;1753412;80;21011;-49
2021/08/01 04:49:44;;;;;;;6.28;5.78;;;;;;;31.17;59.77;101119.05;1742199;80;21165;-51
2021/08/01 04:52:17;;;;;;;6.80;6.20;;;;;;;31.15;59.79;101119.71;1763196;80;21541;-49
2021/08/01 04:54:46;;;;;;;6.17;5.67;;;;;;;31.14;59.86;101118.04;1755380;80;21054;-50
2021/08/01 04:57:13;;;;;;;9.98;8.98;;;;;;;31.13;59.75;101119.88;1763819;80;20990;-49
2021/08/01 04:59:40;;;;;;;7.37;6.62;;;;;;;31.13;59.64;101114.99;1755671;81;21511;-51
2021/08/01 05:02:07;;;;;;;9.45;6.87;;;;;;;31.14;59.50;101122.07;1753805;80;21443;-50
2021/08/01 05:04:33;;;;;;;8.18;7.42;;;;;;;31.13;59.63;101125.25;1753845;80;21073;-50
2021/08/01 05:07:00;;;;;;;6.72;5.87;;;;;;;31.14;59.71;101126.11;1750246;81;21027;-51
2021/08/01 05:09:27;;;;;;;6.45;5.87;;;;;;;31.16;59.72;101132.17;1751181;80;21006;-50
2021/08/01 05:11:53;;;;;;;8.40;5.50;;;;;;;31.17;59.71;101133.84;1768178;80;21106;-50
2021/08/01 05:14:20;;;;;;;9.68;8.68;;;;;;;31.18;59.75;101134.20;1768877;80;21523;-50
2021/08/01 05:16:47;;;;;;;8.10;7.28;;;;;;;31.20;59.67;101132.20;1763966;80;21038;-50
2021/08/01 05:19:14;;;;;;;7.05;6.35;;;;;;;31.21;59.64;101129.84;1755033;81;20999;-50
2021/08/01 05:21:40;;;;;;;8.35;6.05;;;;;;;31.22;59.65;101132.36;1756615;80;21120;-50
2021/08/01 05:24:07;;;;;;;7.15;5.95;;;;;;;31.26;59.67;101143.67;1756393;80;21027;-51
2021/08/01 05:26:34;;;;;;;6.83;5.60;;;;;;;31.29;59.66;101137.95;1750889;80;21555;-49
2021/08/01 05:29:01;;;;;;;10.23;9.33;;;;;;;31.33;59.60;101136.64;1761797;80;21487;-50
2021/08/01 05:31:29;;;;;;;11.55;10.45;;;;;;;31.34;59.57;101135.66;1757670;80;21058;-49
2021/08/01 05:33:56;;;;;;;7.33;6.72;;;;;;;31.43;59.30;101136.59;1763978;80;20999;-50
2021/08/01 05:36:23;;;;;;;6.42;5.83;;;;;;;31.45;59.07;101135.41;1755480;80;21015;-49
2021/08/01 05:38:50;;;;;;;7.35;6.17;;;;;;;31.54;58.79;101132.27;1758352;80;21034;-52
2021/08/01 05:41:16;;;;;;;6.58;5.97;;;;;;;31.65;58.32;101128.83;1759424;80;21485;-49
2021/08/01 05:43:43;;;;;;;8.55;7.75;;;;;;;31.79;57.93;101134.95;1752197;80;21007;-49
2021/08/01 05:46:11;;;;;;;9.40;7.35;;;;;;;31.94;57.38;101142.77;1767737;80;21099;-50
2021/08/01 05:48:38;;;;;;;6.97;6.37;;;;;;;32.07;57.03;101137.79;1763040;80;20987;-50
2021/08/01 05:51:08;;;;;;;7.70;5.97;;;;;;;32.17;56.57;101145.73;1749754;80;21097;-50
2021/08/01 05:53:35;;;;;;;9.65;5.60;;;;;;;32.24;56.35;101151.31;1696501;82;21049;-50
2021/08/01 05:56:07;;;;;;;7.45;6.55;;;;;;;32.30;56.11;101146.61;1676765;83;21043;-48
2021/08/01 05:58:34;;;;;;;7.00;5.33;;;;;;;32.39;55.77;101151.03;1687715;83;21688;-50
2021/08/01 06:01:16;;;;;;;7.15;5.22;;;;;;;32.46;55.59;101153.45;1688328;83;21014;-49
2021/08/01 06:03:43;;;;;;;6.78;5.30;;;;;;;32.55;55.40;101153.79;1667442;84;21089;-48
2021/08/01 06:06:17;;;;;;;6.78;6.15;;;;;;;32.62;55.20;101150.78;1698018;83;21139;-51
2021/08/01 06:08:47;;;;;;;7.60;5.35;;;;;;;32.66;54.99;101144.05;1664135;85;21194;-50
2021/08/01 06:11:14;;;;;;;5.58;5.08;;;;;;;32.68;54.77;101137.99;1655252;85;21120;-51
2021/08/01 06:13:42;;;;;;;8.58;5.22;;;;;;;32.69;54.84;101141.01;1661548;85;21193;-48
2021/08/01 06:16:11;;;;;;;5.45;4.92;;;;;;;32.68;54.99;101137.50;1664307;85;21090;-50
2021/08/01 06:18:38;;;;;;;6.08;4.70;;;;;;;32.67;55.16;101133.10;1666116;85;21113;-50
2021/08/01 06:21:16;;;;;;;6.03;5.42;;;;;;;32.66;55.26;101143.56;1654670;85;21023;-48
2021/08/01 06:23:47;;;;;;;5.28;4.78;;;;;;;32.66;55.23;101141.36;1630404;86;21165;-49
2021/08/01 06:26:15;;;;;;;7.33;5.20;;;;;;;32.69;55.32;101145.05;1620640;87;21049;-49
2021/08/01 06:28:42;;;;;;;8.08;5.55;;;;;;;32.69;55.30;101141.01;1623673;87;21046;-49
2021/08/01 06:31:09;;;;;;;6.83;5.00;;;;;;;32.69;54.93;101141.86;1623104;86;21097;-49
2021/08/01 06:33:36;;;;;;;5.33;4.92;;;;;;;32.71;54.92;101138.99;1630399;87;21550;-49
2021/08/01 06:36:10;;;;;;;5.00;4.40;;;;;;;32.72;55.21;101146.08;1621940;86;21675;-49
2021/08/01 06:38:37;;;;;;;6.03;5.20;;;;;;;32.73;54.95;101145.91;1627478;87;21534;-49
2021/08/01 06:41:04;;;;;;;13.70;12.35;;;;;;;32.74;54.96;101144.91;1630670;87;21058;-49
2021/08/01 06:43:31;;;;;;;8.63;7.37;;;;;;;32.75;54.96;101141.69;1625064;87;21093;-49
2021/08/01 06:45:58;;;;;;;10.30;6.15;;;;;;;32.76;54.84;101144.73;1627270;87;21465;-50
2021/08/01 06:48:25;;;;;;;5.30;4.80;;;;;;;32.79;54.72;101144.39;1624720;87;21055;-50
2021/08/01 06:50:52;;;;;;;6.87;5.20;;;;;;;32.81;54.41;101154.50;1657264;84;21127;-49
2021/08/01 06:53:19;;;;;;;6.40;5.53;;;;;;;32.82;54.39;101157.55;1663508;84;21043;-49
2021/08/01 06:55:45;;;;;;;5.30;4.80;;;;;;;32.84;54.34;101163.61;1671564;84;22297;-48
2021/08/01 06:58:19;;;;;;;5.78;5.28;;;;;;;32.87;54.18;101160.59;1671237;84;21004;-49
2021/08/01 07:00:49;;;;;;;9.88;5.67;;;;;;;32.89;54.07;101161.27;1664649;84;21115;-49
2021/08/01 07:03:15;;;;;;;5.25;4.62;;;;;;;32.91;53.97;101161.95;1632361;87;21067;-50
2021/08/01 07:05:42;;;;;;;6.10;5.12;;;;;;;32.92;53.89;101164.97;1651882;86;21501;-50
2021/08/01 07:08:09;;;;;;;8.98;4.95;;;;;;;32.94;53.88;101166.98;1667378;86;21527;-50
2021/08/01 07:10:35;;;;;;;7.20;5.15;;;;;;;32.96;53.89;101164.97;1655894;86;21061;-50
2021/08/01 07:13:05;;;;;;;5.50;4.72;;;;;;;33.00;53.81;101171.73;1638551;86;21114;-50
2021/08/01 07:15:32;;;;;;;9.80;8.50;;;;;;;33.06;53.60;101176.45;1660709;86;21034;-51
2021/08/01 07:18:00;;;;;;;8.40;6.80;;;;;;;33.10;53.51;101181.84;1655800;85;21023;-49
2021/08/01 07:20:27;;;;;;;5.70;5.20;;;;;;;33.15;53.49;101176.81;1685454;83;21038;-49
2021/08/01 07:22:55;;;;;;;5.78;5.20;;;;;;;33.19;53.27;101176.80;1704109;83;21094;-50
2021/08/01 07:25:23;;;;;;;5.67;4.70;;;;;;;33.26;53.14;101186.42;1707020;83;21013;-48
2021/08/01 07:27:52;;;;;;;6.80;5.03;;;;;;;33.32;52.95;101179.84;1700381;83;21018;-50
2021/08/01 07:30:19;;;;;;;5.75;4.62;;;;;;;33.37;52.67;101177.46;1657903;85;21074;-49
2021/08/01 07:32:46;;;;;;;8.18;5.50;;;;;;;33.39;52.59;101175.44;1673023;84;21081;-50
2021/08/01 07:35:13;;;;;;;5.72;5.05;;;;;;;33.41;52.50;101173.41;1684856;84;21109;-50
2021/08/01 07:37:40;;;;;;;7.03;5.50;;;;;;;33.44;52.38;101177.13;1674019;84;21085;-49
2021/08/01 07:40:08;;;;;;;6.17;5.47;;;;;;;33.46;52.24;101168.36;1666849;84;21043;-50
2021/08/01 07:42:34;;;;;;;6.30;4.60;;;;;;;33.47;52.31;101164.62;1680124;84;21098;-50
2021/08/01 07:45:03;;;;;;;6.12;4.83;;;;;;;33.47;52.08;101168.67;1675535;84;21022;-52
2021/08/01 07:47:34;;;;;;;4.72;4.33;;;;;;;33.49;52.15;101170.73;1669797;84;21041;-49
2021/08/01 07:50:01;;;;;;;13.88;9.85;;;;;;;33.50;52.04;101172.43;1675977;84;21081;-50
2021/08/01 07:52:29;;;;;;;10.65;9.63;;;;;;;33.50;52.04;101167.03;1678922;84;21044;-49
2021/08/01 07:54:56;;;;;;;6.53;5.92;;;;;;;33.50;52.11;101169.73;1684798;84;21087;-50
2021/08/01 07:57:29;;;;;;;6.37;5.03;;;;;;;33.51;52.13;101171.41;1676206;84;21081;-50
2021/08/01 07:59:57;;;;;;;6.62;4.92;;;;;;;33.52;52.03;101169.05;1664230;84;21078;-50
2021/08/01 08:02:25;;;;;;;5.08;4.50;;;;;;;33.53;51.65;101166.67;1681320;84;21525;-49
2021/08/01 08:04:52;;;;;;;7.62;5.70;;;;;;;33.54;51.80;101167.03;1685954;84;22549;-48
2021/08/01 08:07:19;;;;;;;4.83;4.35;;;;;;;33.55;51.69;101170.05;1688007;84;21085;-50
2021/08/01 08:09:46;;;;;;;4.90;4.42;;;;;;;33.55;51.70;101164.64;1679715;84;21135;-51
2021/08/01 08:12:13;;;;;;;8.33;5.30;;;;;;;33.56;51.67;101163.65;1679783;84;21160;-51
2021/08/01 08:14:40;;;;;;;11.38;10.35;;;;;;;33.57;51.72;101165.84;1679193;83;21006;-51
2021/08/01 08:17:07;;;;;;;6.67;6.08;;;;;;;33.57;51.62;101165.31;1673646;84;21069;-49
2021/08/01 08:19:34;;;;;;;7.22;5.35;;;;;;;33.57;51.64;101165.31;1676603;84;21030;-51
2021/08/01 08:22:03;;;;;;;5.25;4.70;;;;;;;33.58;51.64;101175.11;1685019;84;21026;-49
2021/08/01 08:24:29;;;;;;;7.85;5.72;;;;;;;33.59;51.67;101170.56;1667339;84;21110;-51
2021/08/01 08:26:56;;;;;;;8.03;5.10;;;;;;;33.60;51.91;101172.23;1717631;80;21482;-50
2021/08/01 08:29:24;;;;;;;6.97;5.35;;;;;;;33.61;51.79;101174.75;1742596;81;21524;-50
2021/08/01 08:31:52;;;;;;;9.23;5.42;;;;;;;33.61;51.79;101174.75;1755276;80;21003;-50
2021/08/01 08:34:22;;;;;;;6.87;5.43;;;;;;;33.63;51.75;101171.91;1753811;80;21034;-49
2021/08/01 08:36:50;;;;;;;7.12;5.15;;;;;;;33.63;51.75;101167.33;1761145;80;21521;-49
2021/08/01 08:39:17;;;;;;;6.92;5.03;;;;;;;33.67;51.62;101170.55;1755461;80;21135;-49
2021/08/01 08:41:44;;;;;;;17.82;13.53;;;;;;;33.69;51.50;101172.56;1762741;81;21023;-51
2021/08/01 08:44:11;;;;;;;7.83;5.37;;;;;;;33.72;51.37;101165.98;1753358;80;20975;-51
2021/08/01 08:46:38;;;;;;;7.50;6.55;;;;;;;33.73;51.31;101162.25;1757723;80;21956;-49
2021/08/01 08:49:10;;;;;;;6.75;6.05;;;;;;;33.76;51.25;101165.97;1761196;80;21490;-49
2021/08/01 08:51:38;;;;;;;8.88;7.03;;;;;;;33.78;51.23;101159.36;1763112;80;20993;-50
2021/08/01 08:54:17;;;;;;;9.58;8.58;;;;;;;33.78;51.09;101166.64;1762469;80;21009;-49
2021/08/01 08:56:46;;;;;;;9.90;8.63;;;;;;;33.81;51.00;101168.98;1757510;80;21024;-48
2021/08/01 08:59:18;;;;;;;11.80;8.10;;;;;;;33.82;51.10;101171.50;1767508;80;21010;-49
2021/08/01 09:01:46;;;;;;;6.90;5.47;;;;;;;33.84;51.17;101175.39;1694589;83;21085;-51
2021/08/01 09:04:14;;;;;;;8.68;5.47;;;;;;;33.86;51.21;101177.41;1686282;83;21073;-49
2021/08/01 09:06:41;;;;;;;7.58;5.15;;;;;;;33.87;51.14;101179.94;1688947;83;21539;-49
2021/08/01 09:09:10;;;;;;;14.73;6.97;;;;;;;33.88;51.25;101179.44;1680657;84;21039;-50
2021/08/01 09:11:37;;;;;;;9.58;6.20;;;;;;;33.89;51.18;101179.75;1691455;83;21033;-50
2021/08/01 09:14:04;;;;;;;6.35;5.28;;;;;;;33.89;51.18;101175.20;1680788;85;21624;-49
2021/08/01 09:16:44;;;;;;;13.32;8.95;;;;;;;33.92;51.17;101176.72;1689365;83;21061;-48
2021/08/01 09:19:37;;;;;;;8.53;6.10;;;;;;;33.91;51.24;101177.72;1684748;84;21089;-50
2021/08/01 09:22:22;;;;;;;6.00;5.47;;;;;;;33.90;51.05;101169.30;1630982;86;21130;-49
2021/08/01 09:24:51;;;;;;;5.87;5.28;;;;;;;33.88;51.10;101176.73;1635794;86;21095;-49
2021/08/01 09:27:34;;;;;;;7.42;5.42;;;;;;;33.87;51.22;101168.28;1628664;87;21047;-49
2021/08/01 09:30:04;;;;;;;5.25;4.75;;;;;;;33.89;51.20;101170.30;1637412;87;21072;-49
2021/08/01 09:32:34;;;;;;;8.18;4.80;;;;;;;33.91;51.14;101168.27;1599685;88;21168;-50
2021/08/01 09:35:03;;;;;;;6.28;4.80;;;;;;;33.94;50.94;101161.19;1548792;90;21533;-49
2021/08/01 09:37:34;;;;;;;8.70;4.78;;;;;;;33.96;50.98;101164.55;1574820;89;21096;-49
2021/08/01 09:40:12;;;;;;;5.90;5.30;;;;;;;33.98;50.97;101159.81;1636008;86;21071;-48
2021/08/01 09:42:43;;;;;;;5.62;5.08;;;;;;;34.00;51.18;101160.02;1678000;84;22548;-50
2021/08/01 09:45:18;;;;;;;7.25;5.37;;;;;;;34.02;51.13;101157.98;1675303;84;21518;-51
2021/08/01 09:47:46;;;;;;;5.10;4.60;;;;;;;34.02;51.06;101157.13;1680581;84;21090;-49
2021/08/01 09:50:14;;;;;;;5.65;5.05;;;;;;;34.04;51.16;101157.30;1673239;84;21064;-49
2021/08/01 09:52:42;;;;;;;7.12;6.47;;;;;;;34.06;50.96;101165.22;1687608;84;21041;-50
2021/08/01 09:55:19;;;;;;;8.48;7.65;;;;;;;34.08;50.94;101159.13;1673364;84;21032;-48
2021/08/01 09:57:54;;;;;;;7.97;5.70;;;;;;;34.10;50.85;101167.90;1578516;89;21108;-49
2021/08/01 10:00:23;;;;;;;13.60;5.37;;;;;;;34.12;50.91;101171.27;1571268;90;21880;-48
2021/08/01 10:02:50;;;;;;;8.28;5.20;;;;;;;34.13;51.03;101161.63;1537645;90;21145;-49
2021/08/01 10:05:21;;;;;;;6.25;5.65;;;;;;;34.15;51.15;101165.00;1532406;91;21090;-49
2021/08/01 10:07:50;;;;;;;5.65;5.05;;;;;;;34.18;50.88;101163.81;1544539;91;21535;-51
2021/08/01 10:10:26;;;;;;;6.28;4.87;;;;;;;34.04;51.34;101161.34;1544548;90;21062;-49
2021/08/01 10:12:57;;;;;;;10.10;8.63;;;;;;;33.99;51.19;101157.44;1545580;90;21708;-48
2021/08/01 10:15:25;;;;;;;12.40;11.10;;;;;;;34.14;50.72;101159.27;1546694;90;21077;-51
2021/08/01 10:17:52;;;;;;;11.05;5.97;;;;;;;34.26;50.51;101152.96;1514376;91;21525;-50
2021/08/01 10:20:19;;;;;;;9.45;5.15;;;;;;;34.30;50.49;101155.64;1519164;92;21070;-50
2021/08/01 10:22:46;;;;;;;7.80;5.08;;;;;;;34.29;50.50;101152.63;1574980;89;21077;-52
2021/08/01 10:25:23;;;;;;;6.90;5.78;;;;;;;34.31;50.50;101151.41;1560306;90;21542;-50
2021/08/01 10:27:53;;;;;;;6.25;5.50;;;;;;;34.33;50.51;101156.66;1567885;89;21119;-50
2021/08/01 10:32:53;;;;;;;7.62;5.35;;;;;;;34.31;50.05;101147.88;1510615;93;21121;-51
2021/08/01 10:35:22;;;;;;;5.95;5.35;;;;;;;34.30;49.53;101154.29;1528888;92;21097;-50
2021/08/01 10:38:04;;;;;;;5.40;4.90;;;;;;;34.27;49.54;101150.61;1558899;90;21135;-50
2021/08/01 10:40:34;;;;;;;11.90;6.45;;;;;;;34.25;49.70;101145.89;1566729;90;21117;-51
2021/08/01 10:43:05;;;;;;;12.95;8.25;;;;;;;34.22;49.16;101143.53;1557663;90;21105;-50
2021/08/01 10:45:33;;;;;;;12.53;8.63;;;;;;;34.17;49.33;101140.00;1567857;90;21067;-50
2021/08/01 10:47:59;;;;;;;17.05;11.55;;;;;;;34.13;49.74;101139.17;1548872;91;21568;-51
2021/08/01 10:50:29;;;;;;;30.30;15.83;;;;;;;34.08;49.25;101141.08;1560417;90;21101;-50
2021/08/01 10:53:30;;;;;;;19.45;11.03;;;;;;;34.06;49.48;101149.02;1559895;90;21110;-50
2021/08/01 10:56:15;;;;;;;20.52;11.55;;;;;;;34.01;49.99;101147.33;1611337;86;21553;-51
2021/08/01 10:58:43;;;;;;;22.48;11.43;;;;;;;33.96;49.61;101149.20;1643479;86;21520;-49
2021/08/01 11:01:10;;;;;;;18.48;10.40;;;;;;;33.94;49.78;101147.69;1634624;86;21078;-50
2021/08/01 11:03:39;;;;;;;12.15;7.22;;;;;;;33.93;50.19;101145.98;1614505;88;21034;-49
2021/08/01 11:06:26;;;;;;;17.65;9.10;;;;;;;33.93;50.37;101145.98;1661742;86;21534;-50
2021/08/01 11:09:09;;;;;;;20.55;9.60;;;;;;;33.93;50.24;101145.48;1633906;86;21176;-49
2021/08/01 11:11:38;;;;;;;13.88;9.08;;;;;;;33.92;49.96;101146.52;1650805;86;21058;-49
2021/08/01 11:14:06;;;;;;;9.75;6.80;;;;;;;33.92;50.24;101137.56;1651073;86;21160;-49
2021/08/01 11:16:41;;;;;;;12.07;6.00;;;;;;;33.92;50.61;101142.97;1655561;86;21629;-48
2021/08/01 11:19:33;;;;;;;15.23;9.98;;;;;;;33.92;50.49;101144.31;1654123;86;21089;-49
2021/08/01 11:22:00;;;;;;;16.10;7.08;;;;;;;33.92;49.83;101150.56;1640035;86;21100;-49
2021/08/01 11:24:26;;;;;;;9.45;8.45;;;;;;;33.92;50.03;101147.02;1644312;86;21083;-50
2021/08/01 11:27:08;;;;;;;13.83;8.70;;;;;;;33.92;50.02;101141.62;1650877;86;21049;-49
2021/08/01 11:30:02;;;;;;;8.15;5.53;;;;;;;33.92;49.90;101130.81;1699063;80;20994;-48
2021/08/01 11:32:29;;;;;;;8.68;5.97;;;;;;;33.93;50.62;101129.78;1680283;84;21082;-49
2021/08/01 11:35:19;;;;;;;8.18;4.85;;;;;;;33.94;51.26;101129.63;1660236;85;21030;-49
2021/08/01 11:37:47;;;;;;;6.78;4.85;;;;;;;33.97;51.53;101128.41;1649230;84;21168;-49
2021/08/01 11:40:13;;;;;;;6.35;4.67;;;;;;;34.00;51.45;101128.11;1646677;85;21144;-50
2021/08/01 11:42:41;;;;;;;6.12;4.60;;;;;;;34.04;51.45;101123.54;1660437;85;21157;-49